sensor_id;sensor_type;location;lat;lon;timestamp;P1;durP1;ratioP1;P2;durP2;ratioP2
68583;SDS011;55557;49.220;11.150;2023-01-23T00:01:25;16.33;;;8.10;;
68583;SDS011;55557;49.220;11.150;2023-01-23T00:03:52;13.57;;;7.93;;
68583;SDS011;55557;49.220;11.150;2023-01-23T00:06:18;13.67;;;7.03;;
68583;SDS011;55557;49.220;11.150;2023-01-23T00:08:45;11.83;;;7.13;;
68583;SDS011;55557;49.220;11.150;2023-01-23T00:11:15;9.90;;;6.43;;
68583;SDS011;55557;49.220;11.150;2023-01-23T00:13:41;16.83;;;7.13;;
68583;SDS011;55557;49.220;11.150;2023-01-23T00:16:08;12.30;;;7.10;;
68583;SDS011;55557;49.220;11.150;2023-01-23T00:18:34;11.57;;;7.03;;
68583;SDS011;55557;49.220;11.150;2023-01-23T00:21:04;12.27;;;7.50;;
68583;SDS011;55557;49.220;11.150;2023-01-23T00:23:30;17.47;;;8.20;;
68583;SDS011;55557;49.220;11.150;2023-01-23T00:26:00;13.80;;;7.43;;
68583;SDS011;55557;49.220;11.150;2023-01-23T00:28:26;13.73;;;8.37;;
68583;SDS011;55557;49.220;11.150;2023-01-23T00:30:52;14.53;;;7.63;;
68583;SDS011;55557;49.220;11.150;2023-01-23T00:33:18;13.17;;;7.47;;
68583;SDS011;55557;49.220;11.150;2023-01-23T00:35:44;12.90;;;7.83;;
68583;SDS011;55557;49.220;11.150;2023-01-23T00:38:10;12.90;;;7.73;;
68583;SDS011;55557;49.220;11.150;2023-01-23T00:40:36;12.37;;;7.80;;
68583;SDS011;55557;49.220;11.150;2023-01-23T00:43:02;12.03;;;7.73;;
68583;SDS011;55557;49.220;11.150;2023-01-23T00:45:28;14.00;;;8.07;;
68583;SDS011;55557;49.220;11.150;2023-01-23T00:47:54;15.93;;;8.27;;
68583;SDS011;55557;49.220;11.150;2023-01-23T00:50:20;14.60;;;7.97;;
68583;SDS011;55557;49.220;11.150;2023-01-23T00:52:46;15.20;;;8.23;;
68583;SDS011;55557;49.220;11.150;2023-01-23T00:55:12;12.13;;;7.60;;
68583;SDS011;55557;49.220;11.150;2023-01-23T00:57:40;17.53;;;7.57;;
68583;SDS011;55557;49.220;11.150;2023-01-23T01:00:06;13.03;;;7.40;;
68583;SDS011;55557;49.220;11.150;2023-01-23T01:02:33;15.27;;;7.50;;
68583;SDS011;55557;49.220;11.150;2023-01-23T01:04:59;12.60;;;7.13;;
68583;SDS011;55557;49.220;11.150;2023-01-23T01:07:25;13.80;;;7.93;;
68583;SDS011;55557;49.220;11.150;2023-01-23T01:09:51;12.53;;;7.17;;
68583;SDS011;55557;49.220;11.150;2023-01-23T01:12:16;16.47;;;8.63;;
68583;SDS011;55557;49.220;11.150;2023-01-23T01:14:43;15.67;;;8.03;;
68583;SDS011;55557;49.220;11.150;2023-01-23T01:17:09;11.97;;;6.90;;
68583;SDS011;55557;49.220;11.150;2023-01-23T01:19:35;21.63;;;7.93;;
68583;SDS011;55557;49.220;11.150;2023-01-23T01:22:01;11.53;;;7.90;;
68583;SDS011;55557;49.220;11.150;2023-01-23T01:24:27;13.60;;;7.43;;
68583;SDS011;55557;49.220;11.150;2023-01-23T01:26:53;12.10;;;7.77;;
68583;SDS011;55557;49.220;11.150;2023-01-23T01:29:19;13.07;;;8.47;;
68583;SDS011;55557;49.220;11.150;2023-01-23T01:31:45;15.17;;;8.33;;
68583;SDS011;55557;49.220;11.150;2023-01-23T01:34:11;13.63;;;8.43;;
68583;SDS011;55557;49.220;11.150;2023-01-23T01:36:38;13.70;;;8.30;;
68583;SDS011;55557;49.220;11.150;2023-01-23T01:39:04;12.97;;;8.03;;
68583;SDS011;55557;49.220;11.150;2023-01-23T01:41:30;12.57;;;8.50;;
68583;SDS011;55557;49.220;11.150;2023-01-23T01:43:56;13.17;;;8.20;;
68583;SDS011;55557;49.220;11.150;2023-01-23T01:48:53;17.43;;;9.10;;
68583;SDS011;55557;49.220;11.150;2023-01-23T01:51:30;13.03;;;7.83;;
68583;SDS011;55557;49.220;11.150;2023-01-23T01:54:15;11.57;;;7.30;;
68583;SDS011;55557;49.220;11.150;2023-01-23T01:56:45;12.73;;;8.30;;
68583;SDS011;55557;49.220;11.150;2023-01-23T01:59:12;21.03;;;8.43;;
68583;SDS011;55557;49.220;11.150;2023-01-23T02:01:39;12.07;;;7.37;;
68583;SDS011;55557;49.220;11.150;2023-01-23T02:04:06;16.97;;;8.20;;
68583;SDS011;55557;49.220;11.150;2023-01-23T02:06:33;15.03;;;8.30;;
68583;SDS011;55557;49.220;11.150;2023-01-23T02:09:02;13.47;;;7.50;;
68583;SDS011;55557;49.220;11.150;2023-01-23T02:11:30;14.80;;;8.53;;
68583;SDS011;55557;49.220;11.150;2023-01-23T02:13:56;15.93;;;8.47;;
68583;SDS011;55557;49.220;11.150;2023-01-23T02:16:24;12.27;;;7.40;;
68583;SDS011;55557;49.220;11.150;2023-01-23T02:18:53;13.17;;;8.00;;
68583;SDS011;55557;49.220;11.150;2023-01-23T02:21:21;14.70;;;8.30;;
68583;SDS011;55557;49.220;11.150;2023-01-23T02:26:28;17.10;;;8.37;;
68583;SDS011;55557;49.220;11.150;2023-01-23T02:28:56;14.77;;;8.37;;
68583;SDS011;55557;49.220;11.150;2023-01-23T02:31:38;13.50;;;7.97;;
68583;SDS011;55557;49.220;11.150;2023-01-23T02:34:08;15.20;;;9.53;;
68583;SDS011;55557;49.220;11.150;2023-01-23T02:36:38;18.40;;;9.87;;
68583;SDS011;55557;49.220;11.150;2023-01-23T02:39:12;16.20;;;8.90;;
68583;SDS011;55557;49.220;11.150;2023-01-23T02:41:40;16.00;;;8.70;;
68583;SDS011;55557;49.220;11.150;2023-01-23T02:44:26;15.67;;;9.07;;
68583;SDS011;55557;49.220;11.150;2023-01-23T02:46:53;19.17;;;10.40;;
68583;SDS011;55557;49.220;11.150;2023-01-23T02:49:19;18.47;;;11.40;;
68583;SDS011;55557;49.220;11.150;2023-01-23T02:51:46;17.60;;;9.73;;
68583;SDS011;55557;49.220;11.150;2023-01-23T02:54:12;22.53;;;10.20;;
68583;SDS011;55557;49.220;11.150;2023-01-23T02:56:38;18.03;;;10.43;;
68583;SDS011;55557;49.220;11.150;2023-01-23T02:59:06;18.63;;;10.47;;
68583;SDS011;55557;49.220;11.150;2023-01-23T03:02:08;19.37;;;9.77;;
68583;SDS011;55557;49.220;11.150;2023-01-23T03:04:34;17.90;;;9.67;;
68583;SDS011;55557;49.220;11.150;2023-01-23T03:07:00;18.63;;;10.00;;
68583;SDS011;55557;49.220;11.150;2023-01-23T03:09:26;18.40;;;10.47;;
68583;SDS011;55557;49.220;11.150;2023-01-23T03:11:52;17.37;;;9.93;;
68583;SDS011;55557;49.220;11.150;2023-01-23T03:14:19;18.97;;;10.50;;
68583;SDS011;55557;49.220;11.150;2023-01-23T03:16:45;15.70;;;9.43;;
68583;SDS011;55557;49.220;11.150;2023-01-23T03:19:15;23.17;;;9.63;;
68583;SDS011;55557;49.220;11.150;2023-01-23T03:21:41;22.67;;;10.60;;
68583;SDS011;55557;49.220;11.150;2023-01-23T03:24:08;17.87;;;9.93;;
68583;SDS011;55557;49.220;11.150;2023-01-23T03:26:36;19.57;;;9.87;;
68583;SDS011;55557;49.220;11.150;2023-01-23T03:29:02;18.77;;;10.30;;
68583;SDS011;55557;49.220;11.150;2023-01-23T03:31:47;18.47;;;10.50;;
68583;SDS011;55557;49.220;11.150;2023-01-23T03:34:13;16.47;;;9.83;;
68583;SDS011;55557;49.220;11.150;2023-01-23T03:36:41;21.60;;;11.20;;
68583;SDS011;55557;49.220;11.150;2023-01-23T03:39:08;17.33;;;9.53;;
68583;SDS011;55557;49.220;11.150;2023-01-23T03:41:53;17.03;;;10.50;;
68583;SDS011;55557;49.220;11.150;2023-01-23T03:44:19;19.70;;;10.07;;
68583;SDS011;55557;49.220;11.150;2023-01-23T03:46:46;16.67;;;10.10;;
68583;SDS011;55557;49.220;11.150;2023-01-23T03:49:12;20.30;;;11.10;;
68583;SDS011;55557;49.220;11.150;2023-01-23T03:51:38;19.80;;;10.73;;
68583;SDS011;55557;49.220;11.150;2023-01-23T03:54:04;21.60;;;11.30;;
68583;SDS011;55557;49.220;11.150;2023-01-23T03:56:30;20.03;;;10.67;;
68583;SDS011;55557;49.220;11.150;2023-01-23T03:58:56;20.17;;;11.13;;
68583;SDS011;55557;49.220;11.150;2023-01-23T04:01:22;15.07;;;8.23;;
68583;SDS011;55557;49.220;11.150;2023-01-23T04:03:49;18.47;;;10.13;;
68583;SDS011;55557;49.220;11.150;2023-01-23T04:06:15;14.83;;;9.07;;
68583;SDS011;55557;49.220;11.150;2023-01-23T04:08:41;13.63;;;8.63;;
68583;SDS011;55557;49.220;11.150;2023-01-23T04:11:08;17.40;;;8.90;;
68583;SDS011;55557;49.220;11.150;2023-01-23T04:13:34;16.50;;;8.80;;
68583;SDS011;55557;49.220;11.150;2023-01-23T04:16:00;15.63;;;9.33;;
68583;SDS011;55557;49.220;11.150;2023-01-23T04:18:27;15.73;;;8.60;;
68583;SDS011;55557;49.220;11.150;2023-01-23T04:20:53;15.93;;;8.83;;
68583;SDS011;55557;49.220;11.150;2023-01-23T04:23:20;15.17;;;9.97;;
68583;SDS011;55557;49.220;11.150;2023-01-23T04:25:46;16.43;;;9.90;;
68583;SDS011;55557;49.220;11.150;2023-01-23T04:28:12;14.73;;;8.77;;
68583;SDS011;55557;49.220;11.150;2023-01-23T04:30:38;15.60;;;8.67;;
68583;SDS011;55557;49.220;11.150;2023-01-23T04:33:04;16.43;;;9.67;;
68583;SDS011;55557;49.220;11.150;2023-01-23T04:35:30;14.67;;;9.17;;
68583;SDS011;55557;49.220;11.150;2023-01-23T04:37:56;15.90;;;9.63;;
68583;SDS011;55557;49.220;11.150;2023-01-23T04:40:22;15.83;;;8.50;;
68583;SDS011;55557;49.220;11.150;2023-01-23T04:42:48;14.17;;;8.70;;
68583;SDS011;55557;49.220;11.150;2023-01-23T04:45:14;15.83;;;8.70;;
68583;SDS011;55557;49.220;11.150;2023-01-23T04:47:40;12.57;;;7.67;;
68583;SDS011;55557;49.220;11.150;2023-01-23T04:50:06;14.70;;;7.87;;
68583;SDS011;55557;49.220;11.150;2023-01-23T04:52:32;13.60;;;8.30;;
68583;SDS011;55557;49.220;11.150;2023-01-23T04:54:58;14.07;;;8.83;;
68583;SDS011;55557;49.220;11.150;2023-01-23T04:57:24;14.30;;;8.60;;
68583;SDS011;55557;49.220;11.150;2023-01-23T04:59:50;14.83;;;8.47;;
68583;SDS011;55557;49.220;11.150;2023-01-23T05:02:16;14.27;;;8.70;;
68583;SDS011;55557;49.220;11.150;2023-01-23T05:04:42;12.80;;;8.33;;
68583;SDS011;55557;49.220;11.150;2023-01-23T05:07:09;14.27;;;8.03;;
68583;SDS011;55557;49.220;11.150;2023-01-23T05:09:38;16.13;;;8.67;;
68583;SDS011;55557;49.220;11.150;2023-01-23T05:12:04;17.27;;;7.97;;
68583;SDS011;55557;49.220;11.150;2023-01-23T05:14:31;13.47;;;9.10;;
68583;SDS011;55557;49.220;11.150;2023-01-23T05:16:57;24.73;;;7.50;;
68583;SDS011;55557;49.220;11.150;2023-01-23T05:19:23;24.40;;;8.33;;
68583;SDS011;55557;49.220;11.150;2023-01-23T05:21:49;12.73;;;7.40;;
68583;SDS011;55557;49.220;11.150;2023-01-23T05:24:15;11.97;;;7.67;;
68583;SDS011;55557;49.220;11.150;2023-01-23T05:26:41;12.97;;;8.13;;
68583;SDS011;55557;49.220;11.150;2023-01-23T05:29:07;13.53;;;7.63;;
68583;SDS011;55557;49.220;11.150;2023-01-23T05:31:33;13.93;;;8.07;;
68583;SDS011;55557;49.220;11.150;2023-01-23T05:33:59;13.90;;;7.27;;
68583;SDS011;55557;49.220;11.150;2023-01-23T05:36:25;11.50;;;6.60;;
68583;SDS011;55557;49.220;11.150;2023-01-23T05:38:52;15.37;;;8.20;;
68583;SDS011;55557;49.220;11.150;2023-01-23T05:41:19;12.63;;;7.00;;
68583;SDS011;55557;49.220;11.150;2023-01-23T05:43:45;13.80;;;7.40;;
68583;SDS011;55557;49.220;11.150;2023-01-23T05:46:13;12.80;;;6.87;;
68583;SDS011;55557;49.220;11.150;2023-01-23T05:48:39;12.13;;;6.77;;
68583;SDS011;55557;49.220;11.150;2023-01-23T05:51:05;10.37;;;6.50;;
68583;SDS011;55557;49.220;11.150;2023-01-23T05:53:31;11.90;;;7.30;;
68583;SDS011;55557;49.220;11.150;2023-01-23T05:55:57;13.27;;;7.13;;
68583;SDS011;55557;49.220;11.150;2023-01-23T05:58:23;12.07;;;7.20;;
68583;SDS011;55557;49.220;11.150;2023-01-23T06:00:49;12.37;;;7.30;;
68583;SDS011;55557;49.220;11.150;2023-01-23T06:03:15;13.30;;;8.27;;
68583;SDS011;55557;49.220;11.150;2023-01-23T06:05:41;14.43;;;7.97;;
68583;SDS011;55557;49.220;11.150;2023-01-23T06:08:07;13.97;;;7.37;;
68583;SDS011;55557;49.220;11.150;2023-01-23T06:10:35;11.93;;;7.10;;
68583;SDS011;55557;49.220;11.150;2023-01-23T06:13:02;13.10;;;7.27;;
68583;SDS011;55557;49.220;11.150;2023-01-23T06:15:28;13.47;;;8.23;;
68583;SDS011;55557;49.220;11.150;2023-01-23T06:17:54;12.53;;;6.57;;
68583;SDS011;55557;49.220;11.150;2023-01-23T06:20:20;16.60;;;7.67;;
68583;SDS011;55557;49.220;11.150;2023-01-23T06:22:46;11.70;;;8.00;;
68583;SDS011;55557;49.220;11.150;2023-01-23T06:25:12;11.93;;;7.93;;
68583;SDS011;55557;49.220;11.150;2023-01-23T06:27:38;13.60;;;7.60;;
68583;SDS011;55557;49.220;11.150;2023-01-23T06:30:04;14.10;;;8.03;;
68583;SDS011;55557;49.220;11.150;2023-01-23T06:32:31;13.77;;;8.23;;
68583;SDS011;55557;49.220;11.150;2023-01-23T06:34:57;20.83;;;8.80;;
68583;SDS011;55557;49.220;11.150;2023-01-23T06:37:23;17.53;;;8.03;;
68583;SDS011;55557;49.220;11.150;2023-01-23T06:39:48;15.17;;;8.33;;
68583;SDS011;55557;49.220;11.150;2023-01-23T06:42:15;14.57;;;8.40;;
68583;SDS011;55557;49.220;11.150;2023-01-23T06:44:41;12.97;;;7.90;;
68583;SDS011;55557;49.220;11.150;2023-01-23T06:47:07;15.13;;;7.93;;
68583;SDS011;55557;49.220;11.150;2023-01-23T06:49:33;16.27;;;8.53;;
68583;SDS011;55557;49.220;11.150;2023-01-23T06:51:59;15.13;;;8.43;;
68583;SDS011;55557;49.220;11.150;2023-01-23T06:54:25;14.90;;;8.03;;
68583;SDS011;55557;49.220;11.150;2023-01-23T06:56:51;15.13;;;8.83;;
68583;SDS011;55557;49.220;11.150;2023-01-23T06:59:17;14.57;;;8.13;;
68583;SDS011;55557;49.220;11.150;2023-01-23T07:01:44;14.43;;;7.90;;
68583;SDS011;55557;49.220;11.150;2023-01-23T07:04:10;15.87;;;8.70;;
68583;SDS011;55557;49.220;11.150;2023-01-23T07:06:39;14.97;;;7.83;;
68583;SDS011;55557;49.220;11.150;2023-01-23T07:09:05;12.70;;;7.50;;
68583;SDS011;55557;49.220;11.150;2023-01-23T07:11:33;18.83;;;9.00;;
68583;SDS011;55557;49.220;11.150;2023-01-23T07:14:01;13.37;;;7.17;;
68583;SDS011;55557;49.220;11.150;2023-01-23T07:16:27;11.63;;;6.83;;
68583;SDS011;55557;49.220;11.150;2023-01-23T07:18:53;14.07;;;8.20;;
68583;SDS011;55557;49.220;11.150;2023-01-23T07:21:19;18.77;;;8.33;;
68583;SDS011;55557;49.220;11.150;2023-01-23T07:23:45;17.20;;;8.77;;
68583;SDS011;55557;49.220;11.150;2023-01-23T07:26:11;15.73;;;8.53;;
68583;SDS011;55557;49.220;11.150;2023-01-23T07:28:37;15.97;;;8.33;;
68583;SDS011;55557;49.220;11.150;2023-01-23T07:31:04;15.37;;;8.57;;
68583;SDS011;55557;49.220;11.150;2023-01-23T07:33:30;13.67;;;8.20;;
68583;SDS011;55557;49.220;11.150;2023-01-23T07:35:56;14.53;;;8.63;;
68583;SDS011;55557;49.220;11.150;2023-01-23T07:38:22;13.80;;;7.97;;
68583;SDS011;55557;49.220;11.150;2023-01-23T07:40:49;14.13;;;8.67;;
68583;SDS011;55557;49.220;11.150;2023-01-23T07:43:15;21.17;;;9.53;;
68583;SDS011;55557;49.220;11.150;2023-01-23T07:45:41;16.60;;;8.20;;
68583;SDS011;55557;49.220;11.150;2023-01-23T07:48:07;22.43;;;8.90;;
68583;SDS011;55557;49.220;11.150;2023-01-23T07:50:33;15.30;;;8.67;;
68583;SDS011;55557;49.220;11.150;2023-01-23T07:53:01;15.30;;;8.27;;
68583;SDS011;55557;49.220;11.150;2023-01-23T07:55:28;16.83;;;10.00;;
68583;SDS011;55557;49.220;11.150;2023-01-23T07:57:54;16.07;;;8.90;;
68583;SDS011;55557;49.220;11.150;2023-01-23T08:00:20;17.97;;;9.03;;
68583;SDS011;55557;49.220;11.150;2023-01-23T08:02:46;17.10;;;8.83;;
68583;SDS011;55557;49.220;11.150;2023-01-23T08:05:12;17.07;;;9.27;;
68583;SDS011;55557;49.220;11.150;2023-01-23T08:07:38;14.97;;;9.20;;
68583;SDS011;55557;49.220;11.150;2023-01-23T08:10:05;13.13;;;8.50;;
68583;SDS011;55557;49.220;11.150;2023-01-23T08:12:31;14.00;;;8.40;;
68583;SDS011;55557;49.220;11.150;2023-01-23T08:14:57;15.10;;;7.17;;
68583;SDS011;55557;49.220;11.150;2023-01-23T08:17:23;15.00;;;8.07;;
68583;SDS011;55557;49.220;11.150;2023-01-23T08:19:49;16.60;;;9.37;;
68583;SDS011;55557;49.220;11.150;2023-01-23T08:22:15;14.73;;;8.53;;
68583;SDS011;55557;49.220;11.150;2023-01-23T08:24:41;12.50;;;7.97;;
68583;SDS011;55557;49.220;11.150;2023-01-23T08:27:07;14.40;;;8.33;;
68583;SDS011;55557;49.220;11.150;2023-01-23T08:29:33;13.83;;;6.87;;
68583;SDS011;55557;49.220;11.150;2023-01-23T08:31:58;14.07;;;8.27;;
68583;SDS011;55557;49.220;11.150;2023-01-23T08:34:24;16.47;;;8.67;;
68583;SDS011;55557;49.220;11.150;2023-01-23T08:36:50;15.33;;;7.83;;
68583;SDS011;55557;49.220;11.150;2023-01-23T08:39:17;16.30;;;8.33;;
68583;SDS011;55557;49.220;11.150;2023-01-23T08:41:43;17.10;;;8.33;;
68583;SDS011;55557;49.220;11.150;2023-01-23T08:44:09;11.97;;;6.87;;
68583;SDS011;55557;49.220;11.150;2023-01-23T08:46:35;15.93;;;8.17;;
68583;SDS011;55557;49.220;11.150;2023-01-23T08:49:01;11.83;;;6.97;;
68583;SDS011;55557;49.220;11.150;2023-01-23T08:51:29;12.33;;;7.40;;
68583;SDS011;55557;49.220;11.150;2023-01-23T08:53:55;13.53;;;8.13;;
68583;SDS011;55557;49.220;11.150;2023-01-23T08:56:21;14.40;;;8.00;;
68583;SDS011;55557;49.220;11.150;2023-01-23T08:58:48;12.93;;;8.00;;
68583;SDS011;55557;49.220;11.150;2023-01-23T09:01:15;14.77;;;8.10;;
68583;SDS011;55557;49.220;11.150;2023-01-23T09:03:41;13.10;;;7.50;;
68583;SDS011;55557;49.220;11.150;2023-01-23T09:06:08;11.80;;;6.97;;
68583;SDS011;55557;49.220;11.150;2023-01-23T09:08:34;12.37;;;7.63;;
68583;SDS011;55557;49.220;11.150;2023-01-23T09:11:01;13.20;;;7.63;;
68583;SDS011;55557;49.220;11.150;2023-01-23T09:13:27;14.17;;;7.33;;
68583;SDS011;55557;49.220;11.150;2023-01-23T09:15:53;12.03;;;7.27;;
68583;SDS011;55557;49.220;11.150;2023-01-23T09:18:22;11.53;;;7.63;;
68583;SDS011;55557;49.220;11.150;2023-01-23T09:20:49;15.10;;;7.87;;
68583;SDS011;55557;49.220;11.150;2023-01-23T09:23:15;13.87;;;7.50;;
68583;SDS011;55557;49.220;11.150;2023-01-23T09:25:42;13.40;;;7.83;;
68583;SDS011;55557;49.220;11.150;2023-01-23T09:28:08;15.53;;;8.03;;
68583;SDS011;55557;49.220;11.150;2023-01-23T09:30:34;17.83;;;7.87;;
68583;SDS011;55557;49.220;11.150;2023-01-23T09:33:00;11.40;;;7.33;;
68583;SDS011;55557;49.220;11.150;2023-01-23T09:35:27;15.33;;;8.23;;
68583;SDS011;55557;49.220;11.150;2023-01-23T09:37:53;14.53;;;8.43;;
68583;SDS011;55557;49.220;11.150;2023-01-23T09:40:35;13.70;;;7.77;;
68583;SDS011;55557;49.220;11.150;2023-01-23T09:43:17;13.03;;;7.43;;
68583;SDS011;55557;49.220;11.150;2023-01-23T09:48:44;10.07;;;6.40;;
68583;SDS011;55557;49.220;11.150;2023-01-23T09:51:19;13.90;;;7.97;;
68583;SDS011;55557;49.220;11.150;2023-01-23T09:53:47;13.10;;;7.63;;
68583;SDS011;55557;49.220;11.150;2023-01-23T09:56:29;13.17;;;7.53;;
68583;SDS011;55557;49.220;11.150;2023-01-23T09:59:02;13.13;;;7.53;;
68583;SDS011;55557;49.220;11.150;2023-01-23T10:01:31;13.80;;;7.80;;
68583;SDS011;55557;49.220;11.150;2023-01-23T10:04:00;13.23;;;7.03;;
68583;SDS011;55557;49.220;11.150;2023-01-23T10:06:28;13.93;;;8.13;;
68583;SDS011;55557;49.220;11.150;2023-01-23T10:14:12;11.27;;;7.03;;
68583;SDS011;55557;49.220;11.150;2023-01-23T10:19:16;14.47;;;8.37;;
68583;SDS011;55557;49.220;11.150;2023-01-23T10:26:46;9.73;;;5.87;;
68583;SDS011;55557;49.220;11.150;2023-01-23T10:29:15;11.00;;;6.70;;
68583;SDS011;55557;49.220;11.150;2023-01-23T10:31:46;9.87;;;5.93;;
68583;SDS011;55557;49.220;11.150;2023-01-23T10:34:19;11.77;;;7.27;;
68583;SDS011;55557;49.220;11.150;2023-01-23T10:36:57;11.53;;;6.73;;
68583;SDS011;55557;49.220;11.150;2023-01-23T10:39:25;9.97;;;6.23;;
68583;SDS011;55557;49.220;11.150;2023-01-23T10:41:52;10.83;;;6.50;;
68583;SDS011;55557;49.220;11.150;2023-01-23T10:44:18;10.07;;;5.97;;
68583;SDS011;55557;49.220;11.150;2023-01-23T10:46:51;9.33;;;5.60;;
68583;SDS011;55557;49.220;11.150;2023-01-23T10:49:34;8.27;;;5.87;;
68583;SDS011;55557;49.220;11.150;2023-01-23T10:52:04;9.97;;;6.07;;
68583;SDS011;55557;49.220;11.150;2023-01-23T10:54:43;14.67;;;7.00;;
68583;SDS011;55557;49.220;11.150;2023-01-23T10:59:39;9.93;;;6.27;;
68583;SDS011;55557;49.220;11.150;2023-01-23T11:04:41;9.00;;;6.00;;
68583;SDS011;55557;49.220;11.150;2023-01-23T11:10:04;11.70;;;7.23;;
68583;SDS011;55557;49.220;11.150;2023-01-23T11:12:48;11.37;;;6.37;;
68583;SDS011;55557;49.220;11.150;2023-01-23T11:15:24;12.00;;;7.70;;
68583;SDS011;55557;49.220;11.150;2023-01-23T11:17:54;9.50;;;6.50;;
68583;SDS011;55557;49.220;11.150;2023-01-23T11:20:25;11.83;;;6.53;;
68583;SDS011;55557;49.220;11.150;2023-01-23T11:23:01;10.30;;;6.47;;
68583;SDS011;55557;49.220;11.150;2023-01-23T11:27:58;10.33;;;6.30;;
68583;SDS011;55557;49.220;11.150;2023-01-23T11:33:13;11.20;;;7.00;;
68583;SDS011;55557;49.220;11.150;2023-01-23T11:35:52;11.90;;;6.83;;
68583;SDS011;55557;49.220;11.150;2023-01-23T11:38:22;9.97;;;6.63;;
68583;SDS011;55557;49.220;11.150;2023-01-23T11:40:50;12.40;;;7.47;;
68583;SDS011;55557;49.220;11.150;2023-01-23T11:43:18;10.77;;;6.60;;
68583;SDS011;55557;49.220;11.150;2023-01-23T11:46:05;14.07;;;6.90;;
68583;SDS011;55557;49.220;11.150;2023-01-23T11:51:23;12.10;;;6.80;;
68583;SDS011;55557;49.220;11.150;2023-01-23T11:58:59;10.40;;;6.50;;
68583;SDS011;55557;49.220;11.150;2023-01-23T12:01:35;11.63;;;6.80;;
68583;SDS011;55557;49.220;11.150;2023-01-23T12:09:25;8.60;;;5.77;;
68583;SDS011;55557;49.220;11.150;2023-01-23T12:17:29;11.10;;;6.40;;
68583;SDS011;55557;49.220;11.150;2023-01-23T12:25:41;8.60;;;5.43;;
68583;SDS011;55557;49.220;11.150;2023-01-23T12:38:26;10.43;;;6.07;;
68583;SDS011;55557;49.220;11.150;2023-01-23T12:46:00;11.27;;;6.00;;
68583;SDS011;55557;49.220;11.150;2023-01-23T12:48:31;8.57;;;5.77;;
68583;SDS011;55557;49.220;11.150;2023-01-23T12:51:11;9.13;;;5.83;;
68583;SDS011;55557;49.220;11.150;2023-01-23T12:53:39;8.47;;;5.57;;
68583;SDS011;55557;49.220;11.150;2023-01-23T12:56:16;12.50;;;6.03;;
68583;SDS011;55557;49.220;11.150;2023-01-23T12:58:46;11.90;;;5.43;;
68583;SDS011;55557;49.220;11.150;2023-01-23T13:01:30;7.90;;;5.10;;
68583;SDS011;55557;49.220;11.150;2023-01-23T13:04:02;9.17;;;5.60;;
68583;SDS011;55557;49.220;11.150;2023-01-23T13:06:36;8.80;;;5.03;;
68583;SDS011;55557;49.220;11.150;2023-01-23T13:16:47;6.87;;;4.93;;
68583;SDS011;55557;49.220;11.150;2023-01-23T13:19:19;9.30;;;5.77;;
68583;SDS011;55557;49.220;11.150;2023-01-23T13:22:13;8.17;;;4.80;;
68583;SDS011;55557;49.220;11.150;2023-01-23T13:24:42;7.57;;;5.17;;
68583;SDS011;55557;49.220;11.150;2023-01-23T13:32:50;8.00;;;5.20;;
68583;SDS011;55557;49.220;11.150;2023-01-23T13:38:12;7.93;;;5.33;;
68583;SDS011;55557;49.220;11.150;2023-01-23T13:51:52;8.77;;;5.03;;
68583;SDS011;55557;49.220;11.150;2023-01-23T13:54:24;8.10;;;4.67;;
68583;SDS011;55557;49.220;11.150;2023-01-23T13:57:10;7.47;;;4.50;;
68583;SDS011;55557;49.220;11.150;2023-01-23T13:59:39;7.17;;;4.80;;
68583;SDS011;55557;49.220;11.150;2023-01-23T14:05:24;6.57;;;4.57;;
68583;SDS011;55557;49.220;11.150;2023-01-23T14:07:58;7.27;;;4.87;;
68583;SDS011;55557;49.220;11.150;2023-01-23T14:10:26;8.37;;;5.17;;
68583;SDS011;55557;49.220;11.150;2023-01-23T14:13:06;6.03;;;4.47;;
68583;SDS011;55557;49.220;11.150;2023-01-23T14:15:33;8.80;;;4.23;;
68583;SDS011;55557;49.220;11.150;2023-01-23T14:18:22;5.80;;;4.23;;
68583;SDS011;55557;49.220;11.150;2023-01-23T14:20:49;6.40;;;4.33;;
68583;SDS011;55557;49.220;11.150;2023-01-23T14:25:53;7.77;;;5.17;;
68583;SDS011;55557;49.220;11.150;2023-01-23T14:28:19;7.93;;;5.20;;
68583;SDS011;55557;49.220;11.150;2023-01-23T14:30:59;6.47;;;4.23;;
68583;SDS011;55557;49.220;11.150;2023-01-23T14:33:25;7.33;;;5.20;;
68583;SDS011;55557;49.220;11.150;2023-01-23T14:35:52;5.50;;;4.27;;
68583;SDS011;55557;49.220;11.150;2023-01-23T14:38:27;7.70;;;5.43;;
68583;SDS011;55557;49.220;11.150;2023-01-23T14:40:53;6.00;;;4.57;;
68583;SDS011;55557;49.220;11.150;2023-01-23T14:43:20;6.43;;;5.00;;
68583;SDS011;55557;49.220;11.150;2023-01-23T14:45:48;6.70;;;4.83;;
68583;SDS011;55557;49.220;11.150;2023-01-23T14:48:15;6.70;;;4.83;;
68583;SDS011;55557;49.220;11.150;2023-01-23T14:50:42;5.97;;;4.13;;
68583;SDS011;55557;49.220;11.150;2023-01-23T14:53:12;7.00;;;4.70;;
68583;SDS011;55557;49.220;11.150;2023-01-23T14:55:39;6.57;;;4.20;;
68583;SDS011;55557;49.220;11.150;2023-01-23T14:58:08;6.13;;;4.70;;
68583;SDS011;55557;49.220;11.150;2023-01-23T15:00:43;7.30;;;4.43;;
68583;SDS011;55557;49.220;11.150;2023-01-23T15:03:10;6.07;;;4.33;;
68583;SDS011;55557;49.220;11.150;2023-01-23T15:05:38;6.37;;;4.17;;
68583;SDS011;55557;49.220;11.150;2023-01-23T15:08:15;8.00;;;4.53;;
68583;SDS011;55557;49.220;11.150;2023-01-23T15:10:45;7.77;;;4.77;;
68583;SDS011;55557;49.220;11.150;2023-01-23T15:15:58;6.77;;;4.57;;
68583;SDS011;55557;49.220;11.150;2023-01-23T15:18:28;6.47;;;4.70;;
68583;SDS011;55557;49.220;11.150;2023-01-23T15:23:25;5.30;;;3.83;;
68583;SDS011;55557;49.220;11.150;2023-01-23T15:28:59;6.53;;;4.23;;
68583;SDS011;55557;49.220;11.150;2023-01-23T15:33:52;6.63;;;4.57;;
68583;SDS011;55557;49.220;11.150;2023-01-23T15:36:25;6.43;;;4.40;;
68583;SDS011;55557;49.220;11.150;2023-01-23T15:38:52;6.90;;;4.97;;
68583;SDS011;55557;49.220;11.150;2023-01-23T15:41:19;10.40;;;4.60;;
68583;SDS011;55557;49.220;11.150;2023-01-23T15:43:45;5.30;;;4.70;;
68583;SDS011;55557;49.220;11.150;2023-01-23T15:46:11;5.97;;;4.90;;
68583;SDS011;55557;49.220;11.150;2023-01-23T15:48:37;6.63;;;4.70;;
68583;SDS011;55557;49.220;11.150;2023-01-23T15:51:03;8.60;;;5.20;;
68583;SDS011;55557;49.220;11.150;2023-01-23T15:53:29;10.33;;;5.17;;
68583;SDS011;55557;49.220;11.150;2023-01-23T15:55:55;7.87;;;5.13;;
68583;SDS011;55557;49.220;11.150;2023-01-23T15:58:22;6.03;;;4.57;;
68583;SDS011;55557;49.220;11.150;2023-01-23T16:00:48;7.33;;;4.97;;
68583;SDS011;55557;49.220;11.150;2023-01-23T16:03:14;8.13;;;5.77;;
68583;SDS011;55557;49.220;11.150;2023-01-23T16:05:40;7.27;;;4.67;;
68583;SDS011;55557;49.220;11.150;2023-01-23T16:08:12;10.10;;;5.97;;
68583;SDS011;55557;49.220;11.150;2023-01-23T16:10:40;6.20;;;4.27;;
68583;SDS011;55557;49.220;11.150;2023-01-23T16:13:08;6.43;;;4.80;;
68583;SDS011;55557;49.220;11.150;2023-01-23T16:15:37;7.47;;;5.07;;
68583;SDS011;55557;49.220;11.150;2023-01-23T16:18:03;6.07;;;4.57;;
68583;SDS011;55557;49.220;11.150;2023-01-23T16:20:31;7.97;;;5.93;;
68583;SDS011;55557;49.220;11.150;2023-01-23T16:23:12;6.60;;;4.87;;
68583;SDS011;55557;49.220;11.150;2023-01-23T16:25:41;9.27;;;6.57;;
68583;SDS011;55557;49.220;11.150;2023-01-23T16:28:14;8.33;;;5.50;;